createdAt,value
2017-10-20T00:01:51.759Z,95244.98
2017-10-20T00:04:20.799Z,95239.73
2017-10-20T00:06:49.835Z,95240.69
2017-10-20T00:09:18.879Z,95245.25
2017-10-20T00:11:47.924Z,95252.02
2017-10-20T00:14:16.996Z,95249.36
2017-10-20T00:16:46.047Z,95250.98
2017-10-20T00:19:15.088Z,95248.14
2017-10-20T00:21:44.133Z,95257.45
2017-10-20T00:24:13.200Z,95254.53
2017-10-20T00:26:42.246Z,95250.48
2017-10-20T00:29:11.284Z,95248.34
2017-10-20T00:31:42.258Z,95243.78
2017-10-20T00:34:11.296Z,95242.05
2017-10-20T00:36:43.704Z,95239.88
2017-10-20T00:39:12.734Z,95241.48
2017-10-20T00:41:41.771Z,95246.34
2017-10-20T00:44:10.858Z,95249.95
2017-10-20T00:46:39.935Z,95253.11
2017-10-20T00:49:08.970Z,95250.60
2017-10-20T00:51:39.649Z,95251.98
2017-10-20T00:54:08.689Z,95251.70
2017-10-20T00:56:37.790Z,95249.56
2017-10-20T00:59:06.837Z,95246.33
2017-10-20T01:01:40.694Z,95248.98
2017-10-20T01:04:09.712Z,95250.27
2017-10-20T01:06:38.776Z,95251.32
2017-10-20T01:09:07.811Z,95253.15
2017-10-20T01:11:36.862Z,95245.85
2017-10-20T01:14:05.899Z,95251.75
2017-10-20T01:16:34.947Z,95252.69
2017-10-20T01:19:03.966Z,95248.36
2017-10-20T01:21:33.051Z,95247.72
2017-10-20T01:24:02.050Z,95243.16
2017-10-20T01:26:31.108Z,95239.80
2017-10-20T01:29:00.158Z,95244.05
2017-10-20T01:31:29.193Z,95243.95
2017-10-20T01:33:59.186Z,95248.00
2017-10-20T01:36:28.243Z,95254.16
2017-10-20T01:38:57.280Z,95259.43
2017-10-20T01:41:30.170Z,95258.64
2017-10-20T01:43:59.212Z,95255.88
2017-10-20T01:46:28.240Z,95249.80
2017-10-20T01:48:57.284Z,95249.81
2017-10-20T01:51:26.319Z,95254.91
2017-10-20T01:53:55.358Z,95255.02
2017-10-20T01:56:24.416Z,95252.06
2017-10-20T01:58:53.442Z,95257.46
2017-10-20T02:01:22.494Z,95255.31
2017-10-20T02:03:51.535Z,95259.02
2017-10-20T02:06:20.611Z,95262.01
2017-10-20T02:08:49.654Z,95263.80
2017-10-20T02:11:18.686Z,95271.95
2017-10-20T02:13:47.728Z,95273.14
2017-10-20T02:16:16.803Z,95271.94
2017-10-20T02:18:45.841Z,95271.67
2017-10-20T02:21:14.873Z,95274.16
2017-10-20T02:23:44.843Z,95275.85
2017-10-20T02:26:13.905Z,95280.86
2017-10-20T02:28:42.951Z,95283.37
2017-10-20T02:31:11.995Z,95284.67
2017-10-20T02:33:41.034Z,95286.48
2017-10-20T02:36:10.086Z,95285.44
2017-10-20T02:38:39.152Z,95292.03
2017-10-20T02:41:08.204Z,95289.27
2017-10-20T02:43:37.246Z,95295.06
2017-10-20T02:46:06.306Z,95297.75
2017-10-20T02:48:35.369Z,95300.40
2017-10-20T02:51:04.407Z,95298.72
2017-10-20T02:53:33.444Z,95296.75
2017-10-20T02:56:02.478Z,95297.87
2017-10-20T02:58:32.554Z,95300.22
2017-10-20T03:01:01.589Z,95302.91
2017-10-20T03:03:30.634Z,95305.48
2017-10-20T03:05:59.682Z,95302.17
2017-10-20T03:08:29.680Z,95305.00
2017-10-20T03:10:58.714Z,95301.68
2017-10-20T03:13:27.744Z,95310.55
2017-10-20T03:15:56.791Z,95310.26
2017-10-20T03:18:25.848Z,95307.52
2017-10-20T03:20:54.907Z,95319.89
2017-10-20T03:23:23.943Z,95317.41
2017-10-20T03:25:52.980Z,95315.70
2017-10-20T03:28:22.110Z,95313.70
2017-10-20T03:30:51.915Z,95325.69
2017-10-20T03:33:21.854Z,95327.63
2017-10-20T03:35:50.885Z,95326.05
2017-10-20T03:38:19.930Z,95324.52
2017-10-20T03:40:48.981Z,95325.28
2017-10-20T03:43:18.022Z,95329.02
2017-10-20T03:45:47.065Z,95328.23
2017-10-20T03:48:16.163Z,95328.08
2017-10-20T03:50:45.213Z,95332.99
2017-10-20T03:53:14.269Z,95331.60
2017-10-20T03:55:44.310Z,95332.70
2017-10-20T03:58:13.352Z,95335.98
2017-10-20T04:00:42.415Z,95333.83
2017-10-20T04:03:11.463Z,95336.63
2017-10-20T04:05:40.510Z,95341.42
2017-10-20T04:08:09.563Z,95337.92
2017-10-20T04:10:38.631Z,95339.96
2017-10-20T04:13:07.659Z,95341.47
2017-10-20T04:15:36.768Z,95339.35
2017-10-20T04:18:05.820Z,95341.16
2017-10-20T04:20:34.879Z,95341.72
2017-10-20T04:23:03.895Z,95346.63
2017-10-20T04:25:32.964Z,95342.95
2017-10-20T04:28:01.991Z,95342.50
2017-10-20T04:30:31.153Z,95344.05
2017-10-20T04:33:00.197Z,95342.64
2017-10-20T04:35:29.241Z,95344.17
2017-10-20T04:37:59.299Z,95344.86
2017-10-20T04:40:28.354Z,95350.39
2017-10-20T04:42:58.300Z,95349.29
2017-10-20T04:45:27.363Z,95352.72
2017-10-20T04:47:57.335Z,95355.90
2017-10-20T04:50:26.379Z,95354.89
2017-10-20T04:52:56.342Z,95352.25
2017-10-20T04:55:25.394Z,95359.00
2017-10-20T04:57:55.366Z,95359.73
2017-10-20T05:00:24.394Z,95355.36
2017-10-20T05:02:55.423Z,95355.53
2017-10-20T05:05:24.430Z,95359.14
2017-10-20T05:07:53.462Z,95355.12
2017-10-20T05:10:23.486Z,95356.69
2017-10-20T05:12:56.182Z,95352.41
2017-10-20T05:15:25.215Z,95359.42
2017-10-20T05:17:54.246Z,95358.41
2017-10-20T05:20:23.278Z,95356.52
2017-10-20T05:22:52.495Z,95354.03
2017-10-20T05:25:21.532Z,95351.55
2017-10-20T05:27:50.595Z,95354.59
2017-10-20T05:30:19.634Z,95362.34
2017-10-20T05:32:48.673Z,95359.87
2017-10-20T05:35:17.727Z,95356.80
2017-10-20T05:37:47.718Z,95364.67
2017-10-20T05:40:16.756Z,95363.52
2017-10-20T05:42:47.767Z,95361.56
2017-10-20T05:45:21.568Z,95360.81
2017-10-20T05:47:52.605Z,95363.11
2017-10-20T05:50:21.638Z,95362.49
2017-10-20T05:52:50.671Z,95365.46
2017-10-20T05:55:19.703Z,95368.67
2017-10-20T05:57:48.758Z,95368.94
2017-10-20T06:00:17.798Z,95373.44
2017-10-20T06:02:52.431Z,95375.42
2017-10-20T06:05:21.463Z,95376.09
2017-10-20T06:07:51.643Z,95375.35
2017-10-20T06:10:20.675Z,95380.13
2017-10-20T06:12:53.458Z,95384.75
2017-10-20T06:15:30.053Z,95385.45
2017-10-20T06:17:59.139Z,95386.23
2017-10-20T06:20:28.180Z,95393.30
2017-10-20T06:22:57.213Z,95380.50
2017-10-20T06:25:27.218Z,95384.03
2017-10-20T06:27:56.277Z,95386.91
2017-10-20T06:30:27.619Z,95391.99
2017-10-20T06:32:57.559Z,95389.70
2017-10-20T06:35:26.642Z,95392.95
2017-10-20T06:37:55.709Z,95388.54
2017-10-20T06:40:24.786Z,95391.28
2017-10-20T06:42:53.847Z,95392.80
2017-10-20T06:45:22.874Z,95388.84
2017-10-20T06:47:51.924Z,95393.33
2017-10-20T06:50:21.001Z,95399.47
2017-10-20T06:52:50.047Z,95393.97
2017-10-20T06:55:19.082Z,95395.25
2017-10-20T06:57:48.483Z,95398.16
2017-10-20T07:00:17.515Z,95400.48
2017-10-20T07:02:46.567Z,95392.06
2017-10-20T07:05:20.290Z,95393.69
2017-10-20T07:07:49.401Z,95393.77
2017-10-20T07:10:18.434Z,95394.05
2017-10-20T07:12:51.142Z,95392.75
2017-10-20T07:15:20.238Z,95391.42
2017-10-20T07:17:49.362Z,95389.86
2017-10-20T07:20:20.282Z,95394.00
2017-10-20T07:22:49.460Z,95396.10
2017-10-20T07:25:18.525Z,95398.36
2017-10-20T07:27:47.570Z,95400.66
2017-10-20T07:30:16.646Z,95402.48
2017-10-20T07:32:45.696Z,95403.77
2017-10-20T07:35:15.715Z,95402.05
2017-10-20T07:37:44.771Z,95403.69
2017-10-20T07:40:13.815Z,95403.44
2017-10-20T07:42:42.871Z,95406.33
2017-10-20T07:45:11.909Z,95409.95
2017-10-20T07:47:40.955Z,95406.05
2017-10-20T07:50:10.022Z,95404.47
2017-10-20T07:52:39.051Z,95407.42
2017-10-20T07:55:08.103Z,95405.26
2017-10-20T07:57:37.194Z,95403.98
2017-10-20T08:00:06.237Z,95405.92
2017-10-20T08:02:35.282Z,95407.72
2017-10-20T08:05:04.368Z,95400.17
2017-10-20T08:07:33.420Z,95405.28
2017-10-20T08:10:02.464Z,95407.77
2017-10-20T08:12:31.514Z,95413.73
2017-10-20T08:15:00.559Z,95416.98
2017-10-20T08:17:29.611Z,95416.39
2017-10-20T08:20:00.528Z,95420.95
2017-10-20T08:22:29.571Z,95422.52
2017-10-20T08:24:59.540Z,95416.16
2017-10-20T08:27:28.594Z,95414.09
2017-10-20T08:29:58.569Z,95416.78
2017-10-20T08:32:27.622Z,95416.45
2017-10-20T08:34:57.588Z,95414.38
2017-10-20T08:37:26.644Z,95413.37
2017-10-20T08:39:55.686Z,95418.84
2017-10-20T08:42:24.749Z,95415.33
2017-10-20T08:44:54.702Z,95420.17
2017-10-20T08:47:23.756Z,95426.91
2017-10-20T08:49:53.731Z,95429.05
2017-10-20T08:52:22.765Z,95427.75
2017-10-20T08:54:53.805Z,95429.55
2017-10-20T08:57:23.613Z,95431.20
2017-10-20T08:59:52.804Z,95428.52
2017-10-20T09:02:21.816Z,95436.30
2017-10-20T09:04:52.033Z,95439.73
2017-10-20T09:07:21.394Z,95442.58
2017-10-20T09:09:51.430Z,95444.97
2017-10-20T09:12:20.482Z,95446.61
2017-10-20T09:14:49.535Z,95445.91
2017-10-20T09:17:19.252Z,95450.59
2017-10-20T09:19:48.328Z,95449.41
2017-10-20T09:22:18.357Z,95445.41
2017-10-20T09:24:47.399Z,95447.72
2017-10-20T09:27:17.112Z,95448.47
2017-10-20T09:29:47.108Z,95451.70
2017-10-20T09:32:16.358Z,95451.58
2017-10-20T09:34:45.437Z,95455.20
2017-10-20T09:37:14.483Z,95460.20
2017-10-20T09:39:43.617Z,95458.09
2017-10-20T09:42:12.663Z,95466.30
2017-10-20T09:44:41.713Z,95467.52
2017-10-20T09:47:10.759Z,95467.75
2017-10-20T09:49:40.722Z,95467.05
2017-10-20T09:52:09.767Z,95464.59
2017-10-20T09:54:38.811Z,95464.92
2017-10-20T09:57:07.862Z,95468.00
2017-10-20T09:59:36.917Z,95467.23
2017-10-20T10:02:05.969Z,95465.00
2017-10-20T10:04:35.010Z,95466.36
2017-10-20T10:07:04.070Z,95463.93
2017-10-20T10:09:33.159Z,95460.84
2017-10-20T10:12:02.214Z,95465.97
2017-10-20T10:14:32.218Z,95469.83
2017-10-20T10:17:01.271Z,95469.84
2017-10-20T10:19:30.332Z,95474.42
2017-10-20T10:21:59.370Z,95471.58
2017-10-20T10:24:29.369Z,95471.38
2017-10-20T10:27:02.565Z,95477.07
2017-10-20T10:29:31.689Z,95470.95
2017-10-20T10:32:02.696Z,95468.99
2017-10-20T10:34:31.730Z,95466.67
2017-10-20T10:37:00.777Z,95464.31
2017-10-20T10:39:29.839Z,95463.50
2017-10-20T10:41:58.879Z,95462.48
2017-10-20T10:44:27.938Z,95463.33
2017-10-20T10:46:56.996Z,95458.91
2017-10-20T10:49:26.084Z,95461.93
2017-10-20T10:51:55.250Z,95455.41
2017-10-20T10:54:26.255Z,95456.23
2017-10-20T10:56:55.406Z,95455.14
2017-10-20T10:59:24.472Z,95455.95
2017-10-20T11:01:53.503Z,95450.19
2017-10-20T11:04:22.556Z,95454.76
2017-10-20T11:07:09.493Z,95452.27
2017-10-20T11:09:56.285Z,95450.98
2017-10-20T11:12:43.860Z,95447.68
2017-10-20T11:15:12.904Z,95452.36
2017-10-20T11:17:41.996Z,95456.71
2017-10-20T11:20:11.049Z,95453.16
2017-10-20T11:22:40.091Z,95442.69
2017-10-20T11:25:09.135Z,95444.68
2017-10-20T11:27:39.179Z,95446.38
2017-10-20T11:30:08.599Z,95438.77
2017-10-20T11:32:37.658Z,95438.22
2017-10-20T11:35:06.807Z,95446.06
2017-10-20T11:37:35.884Z,95444.86
2017-10-20T11:40:04.911Z,95439.08
2017-10-20T11:42:33.967Z,95443.63
2017-10-20T11:45:03.021Z,95434.61
2017-10-20T11:47:32.994Z,95438.03
2017-10-20T11:50:02.030Z,95446.13
2017-10-20T11:52:31.144Z,95449.52
2017-10-20T11:55:00.155Z,95447.59
2017-10-20T11:57:29.194Z,95444.98
2017-10-20T11:59:58.282Z,95439.98
2017-10-20T12:02:27.332Z,95441.89
2017-10-20T12:04:56.387Z,95435.05
2017-10-20T12:07:25.423Z,95441.91
2017-10-20T12:09:54.566Z,95444.69
2017-10-20T12:12:23.614Z,95442.66
2017-10-20T12:14:52.674Z,95440.54
2017-10-20T12:17:21.707Z,95437.11
2017-10-20T12:19:51.056Z,95434.61
2017-10-20T12:22:20.834Z,95432.11
2017-10-20T12:24:49.922Z,95431.78
2017-10-20T12:27:20.435Z,95428.78
2017-10-20T12:29:49.497Z,95427.05
2017-10-20T12:32:26.126Z,95427.66
2017-10-20T12:34:55.146Z,95424.59
2017-10-20T12:37:32.199Z,95424.96
2017-10-20T12:40:01.307Z,95431.36
2017-10-20T12:42:30.363Z,95428.20
2017-10-20T12:44:59.409Z,95433.55
2017-10-20T12:47:28.470Z,95431.69
2017-10-20T12:49:57.522Z,95433.63
2017-10-20T12:52:27.479Z,95429.64
2017-10-20T12:54:57.694Z,95428.35
2017-10-20T12:57:26.743Z,95427.94
2017-10-20T12:59:55.814Z,95429.30
2017-10-20T13:02:24.863Z,95426.91
2017-10-20T13:04:53.899Z,95429.22
2017-10-20T13:07:22.947Z,95435.91
2017-10-20T13:09:52.028Z,95430.61
2017-10-20T13:12:21.091Z,95432.22
2017-10-20T13:14:50.373Z,95434.84
2017-10-20T13:17:19.399Z,95433.67
2017-10-20T13:19:49.425Z,95433.73
2017-10-20T13:22:18.475Z,95430.78
2017-10-20T13:24:47.519Z,95432.31
2017-10-20T13:27:16.584Z,95424.64
2017-10-20T13:29:45.623Z,95418.76
2017-10-20T13:32:14.675Z,95422.88
2017-10-20T13:34:43.718Z,95423.12
2017-10-20T13:37:12.824Z,95423.73
2017-10-20T13:39:41.920Z,95428.55
2017-10-20T13:42:11.099Z,95425.79
2017-10-20T13:44:40.135Z,95428.88
2017-10-20T13:47:09.175Z,95420.24
2017-10-20T13:49:38.266Z,95426.83
2017-10-20T13:52:07.312Z,95429.16
2017-10-20T13:54:36.361Z,95424.17
2017-10-20T13:57:05.428Z,95426.34
2017-10-20T13:59:34.480Z,95425.52
2017-10-20T14:02:03.519Z,95428.53
2017-10-20T14:04:32.605Z,95428.91
2017-10-20T14:07:01.674Z,95430.02
2017-10-20T14:09:30.699Z,95434.89
2017-10-20T14:11:59.732Z,95431.47
2017-10-20T14:14:28.794Z,95437.23
2017-10-20T14:16:57.838Z,95433.04
2017-10-20T14:19:26.888Z,95436.50
2017-10-20T14:21:55.951Z,95434.38
2017-10-20T14:24:25.145Z,95430.66
2017-10-20T14:26:54.225Z,95430.07
2017-10-20T14:29:23.315Z,95437.87
2017-10-20T14:31:52.466Z,95436.80
2017-10-20T14:34:21.525Z,95440.70
2017-10-20T14:36:50.594Z,95448.63
2017-10-20T14:39:19.683Z,95447.39
2017-10-20T14:41:49.866Z,95452.52
2017-10-20T14:44:18.918Z,95449.82
2017-10-20T14:46:50.020Z,95450.13
2017-10-20T14:49:19.071Z,95450.27
2017-10-20T14:51:50.056Z,95461.95
2017-10-20T14:54:19.170Z,95467.39
2017-10-20T14:56:48.807Z,95466.97
2017-10-20T14:59:17.868Z,95469.88
2017-10-20T15:01:48.288Z,95469.39
2017-10-20T15:04:17.324Z,95463.80
2017-10-20T15:06:46.582Z,95468.05
2017-10-20T15:09:15.645Z,95470.41
2017-10-20T15:11:44.696Z,95467.09
2017-10-20T15:14:13.735Z,95470.74
2017-10-20T15:16:42.793Z,95469.54
2017-10-20T15:19:11.832Z,95473.31
2017-10-20T15:21:41.904Z,95466.09
2017-10-20T15:24:10.950Z,95470.90
2017-10-20T15:26:40.416Z,95474.05
2017-10-20T15:29:13.276Z,95478.03
2017-10-20T15:31:42.313Z,95479.83
2017-10-20T15:34:11.351Z,95478.20
2017-10-20T15:36:40.421Z,95483.30
2017-10-20T15:39:09.460Z,95487.31
2017-10-20T15:41:38.593Z,95481.63
2017-10-20T15:44:07.632Z,95484.28
2017-10-20T15:46:36.711Z,95481.69
2017-10-20T15:49:05.759Z,95481.79
2017-10-20T15:51:34.812Z,95488.27
2017-10-20T15:54:03.868Z,95491.75
2017-10-20T15:56:32.923Z,95493.48
2017-10-20T15:59:01.992Z,95497.06
2017-10-20T16:01:31.060Z,95499.61
2017-10-20T16:04:00.148Z,95498.66
2017-10-20T16:06:29.180Z,95500.36
2017-10-20T16:08:58.216Z,95508.61
2017-10-20T16:11:27.260Z,95504.30
2017-10-20T16:13:56.349Z,95506.60
2017-10-20T16:16:25.387Z,95506.94
2017-10-20T16:18:54.425Z,95520.61
2017-10-20T16:21:23.489Z,95519.30
2017-10-20T16:23:52.724Z,95517.89
2017-10-20T16:26:21.777Z,95518.05
2017-10-20T16:28:50.821Z,95521.75
2017-10-20T16:31:20.336Z,95520.72
2017-10-20T16:33:49.379Z,95514.80
2017-10-20T16:36:19.731Z,95523.88
2017-10-20T16:38:48.781Z,95523.95
2017-10-20T16:41:18.776Z,95535.88
2017-10-20T16:43:47.900Z,95543.59
2017-10-20T16:46:17.988Z,95539.54
2017-10-20T16:48:49.081Z,95548.08
2017-10-20T16:51:18.760Z,95555.29
2017-10-20T16:53:47.804Z,95557.50
2017-10-20T16:56:17.927Z,95556.03
2017-10-20T16:58:47.917Z,95566.13
2017-10-20T17:01:18.049Z,95551.13
2017-10-20T17:03:48.207Z,95555.78
2017-10-20T17:06:18.219Z,95560.32
2017-10-20T17:08:48.200Z,95563.07
2017-10-20T17:11:18.477Z,95564.75
2017-10-20T17:13:47.552Z,95564.39
2017-10-20T17:16:17.232Z,95581.07
2017-10-20T17:18:47.262Z,95569.42
2017-10-20T17:21:16.527Z,95580.13
2017-10-20T17:23:46.594Z,95583.16
2017-10-20T17:26:15.877Z,95583.95
2017-10-20T17:28:44.896Z,95583.59
2017-10-20T17:31:13.947Z,95574.38
2017-10-20T17:33:42.998Z,95581.33
2017-10-20T17:36:12.064Z,95586.41
2017-10-20T17:38:41.165Z,95586.16
2017-10-20T17:41:10.248Z,95585.38
2017-10-20T17:43:41.321Z,95587.71
2017-10-20T17:46:19.567Z,95590.45
2017-10-20T17:48:49.547Z,95589.95
2017-10-20T17:51:19.502Z,95591.50
2017-10-20T17:53:48.618Z,95592.08
2017-10-20T17:56:17.810Z,95593.36
2017-10-20T17:58:50.631Z,95588.55
2017-10-20T18:01:19.725Z,95593.61
2017-10-20T18:03:48.914Z,95590.36
2017-10-20T18:06:19.894Z,95590.75
2017-10-20T18:08:48.960Z,95588.83
2017-10-20T18:11:18.152Z,95584.97
2017-10-20T18:13:47.244Z,95588.23
2017-10-20T18:16:16.302Z,95588.72
2017-10-20T18:18:45.348Z,95589.00
2017-10-20T18:21:14.425Z,95591.26
2017-10-20T18:23:43.784Z,95589.47
2017-10-20T18:26:12.894Z,95589.55
2017-10-20T18:28:41.932Z,95594.13
2017-10-20T18:31:11.166Z,95597.27
2017-10-20T18:33:40.567Z,95596.28
2017-10-20T18:36:10.119Z,95595.13
2017-10-20T18:38:39.272Z,95597.97
2017-10-20T18:41:08.328Z,95595.42
2017-10-20T18:43:37.362Z,95594.04
2017-10-20T18:46:06.650Z,95596.06
2017-10-20T18:51:19.785Z,95603.84
2017-10-20T18:53:49.186Z,95609.55
2017-10-20T18:56:18.242Z,95612.73
2017-10-20T18:58:47.322Z,95611.82
2017-10-20T19:01:16.382Z,95617.09
2017-10-20T19:03:45.429Z,95612.86
2017-10-20T19:06:14.536Z,95618.16
2017-10-20T19:08:43.589Z,95620.70
2017-10-20T19:11:12.624Z,95624.38
2017-10-20T19:13:42.667Z,95621.73
2017-10-20T19:16:11.729Z,95619.63
2017-10-20T19:18:40.782Z,95624.69
2017-10-20T19:21:09.857Z,95632.06
2017-10-20T19:23:38.949Z,95628.04
2017-10-20T19:26:08.005Z,95628.08
2017-10-20T19:28:37.081Z,95625.66
2017-10-20T19:31:06.256Z,95627.78
2017-10-20T19:33:35.321Z,95629.67
2017-10-20T19:36:04.373Z,95624.72
2017-10-20T19:38:33.557Z,95626.74
2017-10-20T19:41:02.618Z,95626.94
2017-10-20T19:43:31.693Z,95629.83
2017-10-20T19:46:01.059Z,95634.36
2017-10-20T19:48:30.116Z,95636.36
2017-10-20T19:50:59.193Z,95644.72
2017-10-20T19:53:28.281Z,95642.88
2017-10-20T19:55:57.383Z,95644.99
2017-10-20T19:58:27.615Z,95648.14
2017-10-20T20:00:56.672Z,95653.14
2017-10-20T20:03:25.702Z,95654.91
2017-10-20T20:05:54.860Z,95655.50
2017-10-20T20:08:23.903Z,95660.81
2017-10-20T20:10:52.947Z,95660.81
2017-10-20T20:13:22.105Z,95661.06
2017-10-20T20:15:51.406Z,95657.08
2017-10-20T20:18:20.422Z,95659.86
2017-10-20T20:20:49.476Z,95661.80
2017-10-20T20:23:18.519Z,95662.41
2017-10-20T20:25:47.600Z,95664.55
2017-10-20T20:28:16.643Z,95664.95
2017-10-20T20:30:47.929Z,95672.59
2017-10-20T20:36:16.404Z,95666.39
2017-10-20T20:38:46.448Z,95664.16
2017-10-20T20:41:15.503Z,95672.28
2017-10-20T20:43:44.552Z,95671.98
2017-10-20T20:46:13.627Z,95663.47
2017-10-20T20:48:42.662Z,95661.41
2017-10-20T20:51:11.699Z,95662.66
2017-10-20T20:53:49.086Z,95669.53
2017-10-20T20:56:18.152Z,95671.10
2017-10-20T20:58:47.213Z,95666.47
2017-10-20T21:01:16.253Z,95664.95
2017-10-20T21:03:45.328Z,95664.34
2017-10-20T21:06:14.400Z,95666.66
2017-10-20T21:08:45.416Z,95668.43
2017-10-20T21:11:14.461Z,95666.00
2017-10-20T21:13:43.737Z,95658.78
2017-10-20T21:16:12.763Z,95660.89
2017-10-20T21:18:41.808Z,95661.48
2017-10-20T21:21:12.812Z,95668.53
2017-10-20T21:23:42.952Z,95665.83
2017-10-20T21:26:12.016Z,95663.53
2017-10-20T21:28:41.051Z,95660.77
2017-10-20T21:31:10.123Z,95653.39
2017-10-20T21:33:39.164Z,95648.64
2017-10-20T21:36:08.527Z,95647.12
2017-10-20T21:38:37.551Z,95647.50
2017-10-20T21:41:06.592Z,95642.61
2017-10-20T21:43:35.647Z,95644.77
2017-10-20T21:46:04.695Z,95646.76
2017-10-20T21:48:34.436Z,95647.31
2017-10-20T21:51:03.864Z,95646.59
2017-10-20T21:53:33.512Z,95651.97
2017-10-20T21:56:09.384Z,95655.41
2017-10-20T21:58:45.498Z,95655.44
2017-10-20T22:01:14.731Z,95654.41
2017-10-20T22:03:43.828Z,95657.06
2017-10-20T22:06:14.303Z,95647.50
2017-10-20T22:08:43.357Z,95651.90
2017-10-20T22:11:12.403Z,95652.94
2017-10-20T22:13:41.454Z,95645.93
2017-10-20T22:16:10.514Z,95642.50
2017-10-20T22:18:39.556Z,95644.72
2017-10-20T22:21:08.623Z,95647.03
2017-10-20T22:23:37.650Z,95647.92
2017-10-20T22:26:06.699Z,95646.78
2017-10-20T22:28:35.776Z,95642.81
2017-10-20T22:31:04.800Z,95645.58
2017-10-20T22:33:33.856Z,95639.50
2017-10-20T22:36:02.914Z,95639.66
2017-10-20T22:38:35.572Z,95644.55
2017-10-20T22:41:05.491Z,95641.23
2017-10-20T22:43:34.528Z,95638.22
2017-10-20T22:46:04.530Z,95637.57
2017-10-20T22:48:33.694Z,95642.96
2017-10-20T22:51:02.739Z,95645.75
2017-10-20T22:53:31.780Z,95644.92
2017-10-20T22:56:04.388Z,95645.66
2017-10-20T22:58:33.448Z,95642.25
2017-10-20T23:01:02.480Z,95640.97
2017-10-20T23:03:31.528Z,95637.89
2017-10-20T23:06:01.488Z,95640.42
2017-10-20T23:08:30.540Z,95641.16
2017-10-20T23:10:59.607Z,95641.39
2017-10-20T23:13:28.649Z,95645.08
2017-10-20T23:15:57.679Z,95646.48
2017-10-20T23:18:26.741Z,95645.92
2017-10-20T23:20:56.763Z,95642.56
2017-10-20T23:23:25.807Z,95638.40
2017-10-20T23:25:54.844Z,95640.19
2017-10-20T23:28:24.951Z,95644.28
2017-10-20T23:30:54.951Z,95647.34
2017-10-20T23:33:24.895Z,95646.23
2017-10-20T23:35:53.944Z,95642.66
2017-10-20T23:38:23.058Z,95643.13
2017-10-20T23:40:53.177Z,95640.92
2017-10-20T23:43:22.216Z,95640.36
2017-10-20T23:45:51.323Z,95642.38
2017-10-20T23:48:20.364Z,95637.76
2017-10-20T23:50:49.423Z,95637.52
2017-10-20T23:53:18.464Z,95641.48
2017-10-20T23:55:47.507Z,95643.13
2017-10-20T23:58:16.582Z,95638.55
